Time;durP1;ratioP1;P1;durP2;ratioP2;P2;SDS_P1;SDS_P2;PMS_P1;PMS_P2;Temp;Humidity;BMP_temperature;BMP_pressure;BME280_temperature;BME280_humidity;BME280_pressure;Samples;Min_cycle;Max_cycle;Signal;HPM_P1;HPM_P2
2022/12/14 00:01:11;;;;;;;71.95;11.98;;;;;;;;;;5071363;28;20235;-72
2022/12/14 00:03:39;;;;;;;73.82;12.00;;;;;;;;;;5071351;28;20299;-72
2022/12/14 00:06:11;;;;;;;68.78;11.68;;;;;;;;;;5071262;28;20211;-72
2022/12/14 00:08:38;;;;;;;69.07;12.13;;;;;;;;;;5070810;28;20205;-72
2022/12/14 00:11:05;;;;;;;70.95;11.82;;;;;;;;;;5073091;28;20603;-72
2022/12/14 00:13:32;;;;;;;70.88;11.93;;;;;;;;;;5075269;28;20211;-72
2022/12/14 00:15:59;;;;;;;71.45;11.60;;;;;;;;;;5075169;28;20221;-72
2022/12/14 00:18:27;;;;;;;71.80;12.13;;;;;;;;;;5075200;28;20752;-72
2022/12/14 00:20:54;;;;;;;73.47;13.68;;;;;;;;;;5074614;28;20225;-72
2022/12/14 00:23:22;;;;;;;69.00;11.90;;;;;;;;;;5075086;28;20214;-72
2022/12/14 00:25:49;;;;;;;68.60;11.25;;;;;;;;;;5074784;28;20303;-72
2022/12/14 00:28:16;;;;;;;71.32;12.60;;;;;;;;;;5075017;28;20229;-73
2022/12/14 00:30:43;;;;;;;70.53;11.55;;;;;;;;;;5074110;28;20225;-72
2022/12/14 00:33:10;;;;;;;68.55;11.80;;;;;;;;;;5074787;28;20303;-73
2022/12/14 00:35:38;;;;;;;70.60;11.88;;;;;;;;;;5074735;28;20229;-72
2022/12/14 00:38:05;;;;;;;69.60;10.55;;;;;;;;;;5074610;28;20205;-72
2022/12/14 00:40:33;;;;;;;70.32;12.50;;;;;;;;;;5073959;28;20271;-72
2022/12/14 00:43:00;;;;;;;72.72;12.95;;;;;;;;;;5075197;28;20213;-72
2022/12/14 00:45:27;;;;;;;69.15;11.95;;;;;;;;;;5074687;28;20576;-72
2022/12/14 00:47:55;;;;;;;69.20;12.80;;;;;;;;;;5074569;28;20205;-72
2022/12/14 00:50:22;;;;;;;66.88;11.13;;;;;;;;;;5074059;28;20239;-72
2022/12/14 00:52:49;;;;;;;70.05;12.40;;;;;;;;;;5074697;28;20691;-72
2022/12/14 00:55:16;;;;;;;72.22;11.90;;;;;;;;;;5074581;28;20231;-72
2022/12/14 00:57:45;;;;;;;70.53;13.63;;;;;;;;;;5074647;28;20213;-72
2022/12/14 01:00:12;;;;;;;69.53;12.52;;;;;;;;;;5073552;28;20224;-72
2022/12/14 01:02:39;;;;;;;67.85;11.18;;;;;;;;;;5074291;28;20316;-72
2022/12/14 01:05:07;;;;;;;74.20;13.00;;;;;;;;;;5074459;28;20212;-72
2022/12/14 01:07:34;;;;;;;73.05;13.63;;;;;;;;;;5074369;28;20201;-72
2022/12/14 01:10:01;;;;;;;72.88;13.52;;;;;;;;;;5073484;28;20227;-72
2022/12/14 01:12:28;;;;;;;74.90;11.80;;;;;;;;;;5074264;28;20213;-72
2022/12/14 01:14:57;;;;;;;69.50;11.30;;;;;;;;;;5074061;28;20221;-72
2022/12/14 01:17:24;;;;;;;68.13;11.55;;;;;;;;;;5074319;28;20666;-72
2022/12/14 01:19:51;;;;;;;69.72;12.25;;;;;;;;;;5073323;28;20231;-72
2022/12/14 01:22:18;;;;;;;71.13;13.00;;;;;;;;;;5073726;28;20206;-72
2022/12/14 01:24:46;;;;;;;72.35;12.45;;;;;;;;;;5073963;28;20205;-72
2022/12/14 01:27:13;;;;;;;83.97;13.88;;;;;;;;;;5073891;28;20205;-72
2022/12/14 01:29:40;;;;;;;69.68;11.57;;;;;;;;;;5073435;28;20225;-72
2022/12/14 01:32:09;;;;;;;70.50;12.57;;;;;;;;;;5074004;28;20585;-72
2022/12/14 01:34:36;;;;;;;70.43;12.02;;;;;;;;;;5073872;28;20201;-72
2022/12/14 01:37:03;;;;;;;70.75;12.55;;;;;;;;;;5073830;28;20588;-72
2022/12/14 01:39:31;;;;;;;70.05;11.98;;;;;;;;;;5072912;28;20206;-72
2022/12/14 01:41:58;;;;;;;71.80;13.85;;;;;;;;;;5073509;28;20338;-72
2022/12/14 01:44:43;;;;;;;77.05;14.85;;;;;;;;;;5073849;28;20211;-72
2022/12/14 01:47:16;;;;;;;71.00;13.02;;;;;;;;;;5074000;28;20205;-72
2022/12/14 01:49:45;;;;;;;73.93;13.10;;;;;;;;;;5072840;28;20231;-73
2022/12/14 01:52:15;;;;;;;71.55;12.70;;;;;;;;;;5073506;28;20753;-72
2022/12/14 01:54:45;;;;;;;70.88;13.05;;;;;;;;;;5073210;28;20211;-72
2022/12/14 01:57:14;;;;;;;73.90;12.80;;;;;;;;;;5073571;28;20656;-72
2022/12/14 01:59:43;;;;;;;72.05;13.10;;;;;;;;;;5072703;28;20221;-72
2022/12/14 02:02:11;;;;;;;74.20;14.00;;;;;;;;;;5073284;28;20205;-72
2022/12/14 02:04:42;;;;;;;73.93;14.43;;;;;;;;;;5073110;28;20209;-72
2022/12/14 02:07:09;;;;;;;73.80;14.20;;;;;;;;;;5073095;28;20584;-73
2022/12/14 02:09:37;;;;;;;73.07;14.65;;;;;;;;;;5072236;28;20231;-72
2022/12/14 02:12:06;;;;;;;72.72;14.82;;;;;;;;;;5073368;28;20300;-72
2022/12/14 02:14:34;;;;;;;73.85;13.95;;;;;;;;;;5073139;28;20201;-73
2022/12/14 02:17:01;;;;;;;73.65;13.02;;;;;;;;;;5072972;28;20247;-73
2022/12/14 02:19:28;;;;;;;75.22;14.38;;;;;;;;;;5071937;28;20202;-72
2022/12/14 02:22:04;;;;;;;74.97;15.20;;;;;;;;;;5069298;28;20205;-72
2022/12/14 02:24:40;;;;;;;75.30;14.65;;;;;;;;;;5072765;28;20207;-72
2022/12/14 02:27:18;;;;;;;71.40;13.30;;;;;;;;;;5072637;28;20694;-72
2022/12/14 02:30:00;;;;;;;74.22;13.60;;;;;;;;;;5071869;28;20315;-72
2022/12/14 02:32:50;;;;;;;77.47;14.75;;;;;;;;;;5072813;28;20209;-72
2022/12/14 02:35:20;;;;;;;74.72;14.40;;;;;;;;;;5071525;28;20312;-72
2022/12/14 02:37:52;;;;;;;73.18;15.65;;;;;;;;;;5072785;28;20205;-72
2022/12/14 02:40:22;;;;;;;75.50;15.77;;;;;;;;;;5071769;28;20722;-72
2022/12/14 02:42:55;;;;;;;72.50;14.45;;;;;;;;;;5072586;28;20205;-72
2022/12/14 02:45:26;;;;;;;79.10;14.90;;;;;;;;;;5072440;28;20205;-72
2022/12/14 02:47:55;;;;;;;73.93;15.20;;;;;;;;;;5072288;28;20209;-72
2022/12/14 02:50:24;;;;;;;73.40;15.85;;;;;;;;;;5071576;28;20320;-72
2022/12/14 02:52:55;;;;;;;75.95;15.07;;;;;;;;;;5072390;28;20379;-72
2022/12/14 02:55:25;;;;;;;73.97;14.60;;;;;;;;;;5072200;28;20217;-72
2022/12/14 02:57:54;;;;;;;75.97;15.15;;;;;;;;;;5072474;28;20619;-72
2022/12/14 03:00:21;;;;;;;73.32;14.98;;;;;;;;;;5071242;28;20229;-72
2022/12/14 03:02:50;;;;;;;69.43;13.05;;;;;;;;;;5072312;28;20201;-72
2022/12/14 03:05:17;;;;;;;72.00;14.82;;;;;;;;;;5072255;28;20211;-72
2022/12/14 03:07:47;;;;;;;76.38;14.05;;;;;;;;;;5072106;28;20211;-72
2022/12/14 03:10:21;;;;;;;74.28;14.88;;;;;;;;;;5071140;28;20232;-73
2022/12/14 03:12:51;;;;;;;71.72;14.40;;;;;;;;;;5071864;28;20211;-72
2022/12/14 03:15:19;;;;;;;73.75;14.68;;;;;;;;;;5072022;28;20228;-72
2022/12/14 03:17:47;;;;;;;74.07;14.60;;;;;;;;;;5072193;28;20554;-72
2022/12/14 03:20:18;;;;;;;71.55;14.00;;;;;;;;;;5071150;28;20235;-72
2022/12/14 03:22:49;;;;;;;77.50;15.23;;;;;;;;;;5071903;28;20581;-72
2022/12/14 03:25:18;;;;;;;75.72;15.65;;;;;;;;;;5071622;28;20217;-72
2022/12/14 03:27:49;;;;;;;76.45;15.52;;;;;;;;;;5071722;28;20211;-72
2022/12/14 03:30:17;;;;;;;78.22;16.70;;;;;;;;;;5071444;28;20252;-73
2022/12/14 03:32:48;;;;;;;73.13;15.05;;;;;;;;;;5072227;28;20201;-73
2022/12/14 03:35:18;;;;;;;73.70;15.32;;;;;;;;;;5072216;28;20209;-72
2022/12/14 03:37:48;;;;;;;78.60;18.00;;;;;;;;;;5072036;28;20208;-73
2022/12/14 03:40:15;;;;;;;75.32;16.25;;;;;;;;;;5071428;28;20225;-73
2022/12/14 03:42:49;;;;;;;74.25;14.77;;;;;;;;;;5071639;28;20224;-72
2022/12/14 03:45:18;;;;;;;75.22;15.95;;;;;;;;;;5071316;28;20566;-72
2022/12/14 03:47:53;;;;;;;71.82;14.82;;;;;;;;;;5071524;28;20205;-72
2022/12/14 03:50:24;;;;;;;74.30;16.00;;;;;;;;;;5070723;28;20310;-72
2022/12/14 03:52:54;;;;;;;73.65;16.05;;;;;;;;;;5071703;28;20216;-72
2022/12/14 03:55:24;;;;;;;77.35;15.77;;;;;;;;;;5071572;28;20212;-72
2022/12/14 03:58:09;;;;;;;77.22;16.17;;;;;;;;;;5071647;28;20219;-72
2022/12/14 04:00:37;;;;;;;77.93;17.02;;;;;;;;;;5071023;28;20235;-72
2022/12/14 04:03:09;;;;;;;75.90;17.60;;;;;;;;;;5071675;28;20580;-72
2022/12/14 04:05:40;;;;;;;78.43;17.05;;;;;;;;;;5071466;28;20270;-72
2022/12/14 04:08:10;;;;;;;74.22;16.10;;;;;;;;;;5071320;28;20696;-72
2022/12/14 04:19:01;;;;;;;79.28;17.83;;;;;;;;;;5070733;28;20614;-75
2022/12/14 04:21:32;;;;;;;76.47;17.48;;;;;;;;;;5071091;28;20229;-74
2022/12/14 04:26:51;;;;;;;78.30;18.83;;;;;;;;;;5071142;28;20679;-74
2022/12/14 04:32:08;;;;;;;77.95;17.85;;;;;;;;;;5071191;28;20239;-73
2022/12/14 04:34:38;;;;;;;79.93;17.95;;;;;;;;;;5071412;28;20205;-73
2022/12/14 04:37:09;;;;;;;76.60;17.00;;;;;;;;;;5071233;28;20253;-73
2022/12/14 04:39:37;;;;;;;84.90;19.20;;;;;;;;;;5070425;28;20239;-73
2022/12/14 04:42:06;;;;;;;82.40;19.08;;;;;;;;;;5071025;28;20696;-73
2022/12/14 04:44:35;;;;;;;76.63;17.45;;;;;;;;;;5071021;28;20304;-73
2022/12/14 04:47:03;;;;;;;79.68;17.40;;;;;;;;;;5071165;28;20202;-73
2022/12/14 04:49:33;;;;;;;82.30;19.20;;;;;;;;;;5070393;28;20280;-72
2022/12/14 04:52:04;;;;;;;78.93;18.67;;;;;;;;;;5070838;28;20208;-73
2022/12/14 04:54:36;;;;;;;78.22;17.15;;;;;;;;;;5071142;28;20674;-73
2022/12/14 04:57:07;;;;;;;82.40;19.08;;;;;;;;;;5070968;28;20235;-73
2022/12/14 04:59:34;;;;;;;79.07;18.25;;;;;;;;;;5074181;28;20205;-73
2022/12/14 05:02:04;;;;;;;81.72;19.10;;;;;;;;;;5074729;28;20302;-73
2022/12/14 05:04:39;;;;;;;78.30;17.95;;;;;;;;;;5074487;28;20211;-73
2022/12/14 05:07:10;;;;;;;77.78;18.05;;;;;;;;;;5074556;28;20559;-73
2022/12/14 05:09:40;;;;;;;77.38;18.73;;;;;;;;;;5073888;28;20602;-74
2022/12/14 05:12:09;;;;;;;79.13;18.33;;;;;;;;;;5074399;28;20209;-74
2022/12/14 05:14:38;;;;;;;81.97;18.80;;;;;;;;;;5074425;28;20212;-74
2022/12/14 05:17:06;;;;;;;80.00;18.35;;;;;;;;;;5074496;28;20217;-73
2022/12/14 05:19:33;;;;;;;79.70;18.45;;;;;;;;;;5073457;28;20213;-73
2022/12/14 05:22:03;;;;;;;76.85;18.73;;;;;;;;;;5073927;28;20207;-73
2022/12/14 05:24:30;;;;;;;79.57;18.88;;;;;;;;;;5074375;28;20558;-73
2022/12/14 05:26:58;;;;;;;82.32;20.52;;;;;;;;;;5074062;28;20205;-73
2022/12/14 05:29:25;;;;;;;80.88;19.83;;;;;;;;;;5073378;28;20300;-73
2022/12/14 05:31:52;;;;;;;83.63;21.73;;;;;;;;;;5073970;28;20205;-73
2022/12/14 05:34:20;;;;;;;81.55;18.52;;;;;;;;;;5073788;28;20211;-73
2022/12/14 05:36:47;;;;;;;80.18;18.92;;;;;;;;;;5074167;28;20311;-73
2022/12/14 05:39:14;;;;;;;79.50;19.48;;;;;;;;;;5073219;28;20212;-73
2022/12/14 05:41:41;;;;;;;80.53;19.38;;;;;;;;;;5073857;28;20231;-73
2022/12/14 05:44:10;;;;;;;81.63;20.00;;;;;;;;;;5073765;28;20212;-75
2022/12/14 05:46:37;;;;;;;76.65;17.38;;;;;;;;;;5073730;28;20204;-74
2022/12/14 05:49:04;;;;;;;83.75;20.02;;;;;;;;;;5072799;28;20205;-74
2022/12/14 05:51:31;;;;;;;83.47;21.38;;;;;;;;;;5073504;28;20720;-74
2022/12/14 05:53:58;;;;;;;80.30;18.48;;;;;;;;;;5073598;28;20300;-74
2022/12/14 05:56:26;;;;;;;77.40;17.42;;;;;;;;;;5073450;28;20324;-74
2022/12/14 05:58:53;;;;;;;85.82;21.75;;;;;;;;;;5072741;28;20703;-75
2022/12/14 06:01:21;;;;;;;84.32;20.00;;;;;;;;;;5073381;28;20330;-74
2022/12/14 06:03:48;;;;;;;95.07;22.23;;;;;;;;;;5073140;28;20295;-73
2022/12/14 06:06:16;;;;;;;84.05;21.73;;;;;;;;;;5072614;28;20233;-73
2022/12/14 06:08:44;;;;;;;86.13;20.75;;;;;;;;;;5071852;28;20434;-72
2022/12/14 06:11:12;;;;;;;83.55;20.17;;;;;;;;;;5073152;28;20251;-73
2022/12/14 06:13:40;;;;;;;81.80;21.25;;;;;;;;;;5073190;28;20217;-73
2022/12/14 06:16:08;;;;;;;83.88;20.88;;;;;;;;;;5072976;28;20225;-73
2022/12/14 06:18:36;;;;;;;81.80;19.10;;;;;;;;;;5072300;28;20669;-73
2022/12/14 06:21:03;;;;;;;79.47;18.58;;;;;;;;;;5072671;28;20228;-74
2022/12/14 06:23:30;;;;;;;89.60;22.23;;;;;;;;;;5073020;28;20205;-74
2022/12/14 06:25:58;;;;;;;84.25;21.58;;;;;;;;;;5073087;28;20684;-74
2022/12/14 06:28:25;;;;;;;82.90;20.33;;;;;;;;;;5072565;28;20209;-72
2022/12/14 06:30:52;;;;;;;83.00;21.25;;;;;;;;;;5072013;28;20229;-72
2022/12/14 06:33:19;;;;;;;80.43;19.95;;;;;;;;;;5072563;28;20215;-72
2022/12/14 06:35:48;;;;;;;86.32;21.25;;;;;;;;;;5072742;28;20208;-71
2022/12/14 06:38:15;;;;;;;86.35;19.85;;;;;;;;;;5072430;28;20255;-72
2022/12/14 06:40:43;;;;;;;91.25;21.48;;;;;;;;;;5071960;28;20229;-72
2022/12/14 06:43:10;;;;;;;80.07;18.70;;;;;;;;;;5072260;28;20205;-72
2022/12/14 06:45:37;;;;;;;83.45;20.30;;;;;;;;;;5072378;28;20316;-72
2022/12/14 06:48:04;;;;;;;80.45;18.40;;;;;;;;;;5072353;28;20765;-72
2022/12/14 06:50:32;;;;;;;81.00;19.52;;;;;;;;;;5071961;28;20225;-72
2022/12/14 06:53:00;;;;;;;80.55;18.80;;;;;;;;;;5072292;28;20201;-73
2022/12/14 06:55:28;;;;;;;80.60;20.30;;;;;;;;;;5072674;28;20205;-74
2022/12/14 06:57:55;;;;;;;85.50;18.88;;;;;;;;;;5072352;28;20562;-74
2022/12/14 07:00:23;;;;;;;82.05;20.25;;;;;;;;;;5071913;28;20225;-73
2022/12/14 07:02:51;;;;;;;84.28;20.52;;;;;;;;;;5072420;28;20208;-74
2022/12/14 07:05:18;;;;;;;82.07;20.10;;;;;;;;;;5072241;28;20211;-74
2022/12/14 07:07:45;;;;;;;84.90;21.35;;;;;;;;;;5072056;28;20642;-74
2022/12/14 07:10:13;;;;;;;81.70;20.58;;;;;;;;;;5071225;28;20221;-74
2022/12/14 07:12:40;;;;;;;83.75;20.38;;;;;;;;;;5072185;28;20205;-73
2022/12/14 07:15:08;;;;;;;83.00;20.77;;;;;;;;;;5072489;28;20223;-73
2022/12/14 07:17:36;;;;;;;84.47;20.60;;;;;;;;;;5072281;28;20232;-72
2022/12/14 07:20:04;;;;;;;85.22;23.00;;;;;;;;;;5070484;28;20233;-72
2022/12/14 07:22:31;;;;;;;86.35;22.48;;;;;;;;;;5071898;28;20574;-71
2022/12/14 07:24:58;;;;;;;90.45;24.63;;;;;;;;;;5071633;28;20254;-72
2022/12/14 07:27:27;;;;;;;82.80;22.10;;;;;;;;;;5072052;28;20209;-72
2022/12/14 07:29:54;;;;;;;88.07;22.58;;;;;;;;;;5071151;28;20229;-72
2022/12/14 07:32:22;;;;;;;85.05;23.02;;;;;;;;;;5071862;28;20600;-72
2022/12/14 07:34:49;;;;;;;88.93;22.98;;;;;;;;;;5071571;28;20209;-72
2022/12/14 07:37:16;;;;;;;83.40;21.77;;;;;;;;;;5071580;28;20225;-72
2022/12/14 07:39:43;;;;;;;87.90;22.30;;;;;;;;;;5071060;28;20720;-72
2022/12/14 07:42:11;;;;;;;88.13;23.40;;;;;;;;;;5071820;28;20201;-72
2022/12/14 07:44:40;;;;;;;91.88;24.35;;;;;;;;;;5071926;28;20239;-72
2022/12/14 07:47:07;;;;;;;87.97;22.10;;;;;;;;;;5071518;28;20201;-72
2022/12/14 07:49:34;;;;;;;87.35;22.38;;;;;;;;;;5070830;28;20212;-72
2022/12/14 07:52:01;;;;;;;89.47;25.02;;;;;;;;;;5071452;28;20208;-72
2022/12/14 07:54:28;;;;;;;89.35;24.65;;;;;;;;;;5071526;28;20205;-72
2022/12/14 07:56:55;;;;;;;87.20;23.25;;;;;;;;;;5071365;28;20724;-72
2022/12/14 07:59:23;;;;;;;104.57;33.72;;;;;;;;;;5070779;28;20212;-72
2022/12/14 08:01:52;;;;;;;83.72;22.75;;;;;;;;;;5071478;28;20254;-73
2022/12/14 08:04:20;;;;;;;91.13;23.27;;;;;;;;;;5071863;28;20205;-72
2022/12/14 08:06:47;;;;;;;90.15;25.48;;;;;;;;;;5071653;28;20207;-72
2022/12/14 08:09:15;;;;;;;87.45;23.60;;;;;;;;;;5070775;28;20673;-72
2022/12/14 08:11:42;;;;;;;94.60;27.50;;;;;;;;;;5071463;28;20587;-72
2022/12/14 08:14:12;;;;;;;91.45;25.30;;;;;;;;;;5071462;28;20207;-72
2022/12/14 08:16:39;;;;;;;114.80;36.58;;;;;;;;;;5071338;28;20225;-72
2022/12/14 08:19:08;;;;;;;87.68;26.50;;;;;;;;;;5070441;28;20259;-72
2022/12/14 08:21:35;;;;;;;91.05;25.95;;;;;;;;;;5071412;28;20735;-72
2022/12/14 08:24:02;;;;;;;92.55;24.85;;;;;;;;;;5071381;28;20208;-72
2022/12/14 08:26:29;;;;;;;89.45;25.55;;;;;;;;;;5071186;28;20320;-72
2022/12/14 08:28:57;;;;;;;92.47;26.27;;;;;;;;;;5070435;28;20212;-72
2022/12/14 08:31:25;;;;;;;94.95;27.30;;;;;;;;;;5071669;28;20229;-72
2022/12/14 08:33:52;;;;;;;91.88;25.55;;;;;;;;;;5075204;28;20207;-72
2022/12/14 08:36:21;;;;;;;89.38;24.77;;;;;;;;;;5075120;28;20237;-72
2022/12/14 08:38:52;;;;;;;86.97;24.70;;;;;;;;;;5073987;28;20239;-72
2022/12/14 08:41:19;;;;;;;99.35;34.13;;;;;;;;;;5075084;28;20312;-72
2022/12/14 08:43:49;;;;;;;86.82;23.40;;;;;;;;;;5074747;28;20689;-72
2022/12/14 08:46:17;;;;;;;90.82;25.10;;;;;;;;;;5075198;28;20209;-72
2022/12/14 08:48:44;;;;;;;87.25;23.02;;;;;;;;;;5073906;28;20208;-72
2022/12/14 08:51:11;;;;;;;93.20;26.02;;;;;;;;;;5074733;28;20225;-72
2022/12/14 08:53:40;;;;;;;86.22;24.60;;;;;;;;;;5074741;28;20216;-72
2022/12/14 08:56:07;;;;;;;85.65;22.65;;;;;;;;;;5074610;28;20205;-72
2022/12/14 08:58:35;;;;;;;90.22;25.05;;;;;;;;;;5073562;28;20225;-72
2022/12/14 09:01:03;;;;;;;87.57;24.13;;;;;;;;;;5074338;28;20232;-72
2022/12/14 09:03:30;;;;;;;96.07;27.90;;;;;;;;;;5074768;28;20212;-72
2022/12/14 09:05:57;;;;;;;91.88;26.27;;;;;;;;;;5074592;28;20209;-72
2022/12/14 09:08:24;;;;;;;92.47;27.08;;;;;;;;;;5074370;28;20202;-72
2022/12/14 09:10:53;;;;;;;89.35;24.15;;;;;;;;;;5073768;28;20225;-72
2022/12/14 09:13:20;;;;;;;88.53;23.77;;;;;;;;;;5074157;28;20211;-72
2022/12/14 09:15:47;;;;;;;93.30;26.55;;;;;;;;;;5074533;28;20208;-72
2022/12/14 09:18:14;;;;;;;90.72;22.92;;;;;;;;;;5074200;28;20231;-72
2022/12/14 09:20:43;;;;;;;91.30;25.45;;;;;;;;;;5073413;28;20736;-72
2022/12/14 09:23:10;;;;;;;91.88;24.98;;;;;;;;;;5074102;28;20205;-72
2022/12/14 09:25:38;;;;;;;89.35;26.80;;;;;;;;;;5074146;28;20209;-72
2022/12/14 09:28:06;;;;;;;87.25;24.48;;;;;;;;;;5073966;28;20670;-72
2022/12/14 09:30:33;;;;;;;86.45;24.67;;;;;;;;;;5073511;28;20231;-72
2022/12/14 09:33:01;;;;;;;91.90;24.77;;;;;;;;;;5074062;28;20201;-72
2022/12/14 09:35:28;;;;;;;89.15;25.15;;;;;;;;;;5073933;28;20209;-72
2022/12/14 09:37:55;;;;;;;90.13;26.38;;;;;;;;;;5073658;28;20228;-72
2022/12/14 09:40:24;;;;;;;95.22;25.45;;;;;;;;;;5073080;28;20235;-72
2022/12/14 09:42:55;;;;;;;91.68;25.80;;;;;;;;;;5073636;28;20286;-72
2022/12/14 09:45:26;;;;;;;91.32;27.55;;;;;;;;;;5073803;28;20574;-72
2022/12/14 09:47:56;;;;;;;97.65;26.60;;;;;;;;;;5073954;28;20207;-72
2022/12/14 09:50:24;;;;;;;98.43;25.30;;;;;;;;;;5073027;28;20228;-72
2022/12/14 09:52:52;;;;;;;95.32;27.25;;;;;;;;;;5074039;28;20255;-72
2022/12/14 09:55:21;;;;;;;107.53;31.50;;;;;;;;;;5073912;28;20227;-72
2022/12/14 09:57:50;;;;;;;88.00;24.92;;;;;;;;;;5074060;28;20327;-73
2022/12/14 10:00:18;;;;;;;90.03;26.13;;;;;;;;;;5072805;28;20220;-73
2022/12/14 10:02:54;;;;;;;93.18;26.65;;;;;;;;;;5073446;28;20208;-72
2022/12/14 10:05:35;;;;;;;107.25;27.48;;;;;;;;;;5073287;28;20266;-72
2022/12/14 10:08:06;;;;;;;94.00;27.33;;;;;;;;;;5073492;28;20197;-72
2022/12/14 10:10:36;;;;;;;92.68;25.40;;;;;;;;;;5072563;28;20232;-72
2022/12/14 10:13:06;;;;;;;92.68;26.73;;;;;;;;;;5073382;28;20209;-72
2022/12/14 10:15:38;;;;;;;99.15;27.48;;;;;;;;;;5073373;28;20300;-72
2022/12/14 10:18:22;;;;;;;93.13;27.60;;;;;;;;;;5073134;28;20567;-72
2022/12/14 10:20:54;;;;;;;95.75;26.85;;;;;;;;;;5072477;28;20230;-72
2022/12/14 10:23:22;;;;;;;88.05;25.33;;;;;;;;;;5072955;28;20299;-72
2022/12/14 10:25:51;;;;;;;89.20;25.40;;;;;;;;;;5072823;28;20715;-72
2022/12/14 10:28:20;;;;;;;91.22;25.98;;;;;;;;;;5072517;28;20198;-72
2022/12/14 10:30:49;;;;;;;95.45;27.85;;;;;;;;;;5072126;28;20229;-73
2022/12/14 10:33:18;;;;;;;94.30;27.38;;;;;;;;;;5072878;28;20246;-72
2022/12/14 10:35:50;;;;;;;95.35;26.70;;;;;;;;;;5072858;28;20236;-72
2022/12/14 10:38:18;;;;;;;105.65;28.15;;;;;;;;;;5072659;28;20233;-73
2022/12/14 10:40:49;;;;;;;92.97;27.50;;;;;;;;;;5071866;28;20312;-72
2022/12/14 10:43:29;;;;;;;94.65;27.98;;;;;;;;;;5072770;28;20205;-72
2022/12/14 10:45:59;;;;;;;94.00;28.50;;;;;;;;;;5072662;28;20210;-72
2022/12/14 10:48:38;;;;;;;94.70;27.45;;;;;;;;;;5072665;28;20212;-74
2022/12/14 10:51:08;;;;;;;98.63;28.38;;;;;;;;;;5072382;28;20228;-73
2022/12/14 10:53:38;;;;;;;92.82;28.80;;;;;;;;;;5072532;28;20215;-73
2022/12/14 10:56:08;;;;;;;103.20;27.30;;;;;;;;;;5072367;28;20677;-73
2022/12/14 10:58:35;;;;;;;97.20;28.00;;;;;;;;;;5071794;28;20724;-74
2022/12/14 11:01:02;;;;;;;97.70;28.63;;;;;;;;;;5072905;28;20225;-74
2022/12/14 11:03:29;;;;;;;94.68;28.23;;;;;;;;;;5072343;28;20209;-74
2022/12/14 11:05:59;;;;;;;97.93;29.77;;;;;;;;;;5072161;28;20595;-74
2022/12/14 11:08:40;;;;;;;101.57;30.02;;;;;;;;;;5072340;28;20209;-74
2022/12/14 11:11:09;;;;;;;102.53;31.15;;;;;;;;;;5072350;28;20221;-74
2022/12/14 11:13:36;;;;;;;102.13;28.25;;;;;;;;;;5072130;28;20644;-73
2022/12/14 11:16:17;;;;;;;97.63;27.70;;;;;;;;;;5072089;28;20204;-74
2022/12/14 11:18:45;;;;;;;102.78;29.65;;;;;;;;;;5071435;28;20232;-75
2022/12/14 11:21:15;;;;;;;95.63;29.33;;;;;;;;;;5072121;28;20274;-75
2022/12/14 11:23:45;;;;;;;96.32;27.92;;;;;;;;;;5072148;28;20207;-75
2022/12/14 11:26:14;;;;;;;98.28;28.88;;;;;;;;;;5071830;28;20219;-75
2022/12/14 11:28:46;;;;;;;95.85;28.17;;;;;;;;;;5071272;28;20293;-73
2022/12/14 11:31:15;;;;;;;99.22;29.63;;;;;;;;;;5072537;28;20231;-73
2022/12/14 11:33:46;;;;;;;98.88;28.05;;;;;;;;;;5072003;28;20263;-73
2022/12/14 11:36:26;;;;;;;94.55;27.92;;;;;;;;;;5072266;28;20218;-75
2022/12/14 11:38:58;;;;;;;94.13;28.58;;;;;;;;;;5071216;28;20315;-75
2022/12/14 11:41:28;;;;;;;96.97;28.25;;;;;;;;;;5071943;28;20228;-74
2022/12/14 11:44:05;;;;;;;98.40;29.52;;;;;;;;;;5071926;28;20587;-74
2022/12/14 11:46:42;;;;;;;96.30;28.90;;;;;;;;;;5071891;28;20672;-74
2022/12/14 11:49:19;;;;;;;95.82;30.10;;;;;;;;;;5071374;28;20555;-73
2022/12/14 11:51:56;;;;;;;96.25;28.55;;;;;;;;;;5071768;28;20189;-73
2022/12/14 11:54:25;;;;;;;95.05;28.23;;;;;;;;;;5071951;28;20201;-74
2022/12/14 11:56:52;;;;;;;99.88;29.55;;;;;;;;;;5072066;28;20203;-73
2022/12/14 11:59:20;;;;;;;97.18;30.13;;;;;;;;;;5071082;28;20225;-74
2022/12/14 12:01:47;;;;;;;100.90;31.40;;;;;;;;;;5072039;28;20298;-74
2022/12/14 12:04:16;;;;;;;96.65;28.95;;;;;;;;;;5071664;28;20201;-74
2022/12/14 12:06:43;;;;;;;96.53;29.92;;;;;;;;;;5072952;28;20685;-74
2022/12/14 12:09:18;;;;;;;98.93;28.27;;;;;;;;;;5075394;28;20197;-74
2022/12/14 12:11:47;;;;;;;96.60;28.42;;;;;;;;;;5075620;28;20215;-75
2022/12/14 12:14:25;;;;;;;94.32;28.45;;;;;;;;;;5075467;28;20205;-75
2022/12/14 12:16:52;;;;;;;96.20;29.17;;;;;;;;;;5075880;28;20205;-76
2022/12/14 12:19:22;;;;;;;105.13;31.17;;;;;;;;;;5074705;28;20305;-76
2022/12/14 12:21:49;;;;;;;97.90;30.15;;;;;;;;;;5075296;28;20213;-75
2022/12/14 12:24:18;;;;;;;98.05;29.38;;;;;;;;;;5075429;28;20673;-75
2022/12/14 12:26:50;;;;;;;90.95;27.88;;;;;;;;;;5075300;28;20220;-76
2022/12/14 12:29:20;;;;;;;103.47;30.05;;;;;;;;;;5074762;28;20182;-75
2022/12/14 12:31:55;;;;;;;99.40;30.15;;;;;;;;;;5075532;28;20207;-75
2022/12/14 12:34:25;;;;;;;98.65;27.90;;;;;;;;;;5075460;28;20723;-75
2022/12/14 12:36:53;;;;;;;94.18;28.27;;;;;;;;;;5075067;28;20213;-76
2022/12/14 12:39:24;;;;;;;95.30;28.20;;;;;;;;;;5074052;28;20233;-76
2022/12/14 12:42:05;;;;;;;96.72;28.00;;;;;;;;;;5075238;28;20186;-76
2022/12/14 12:44:41;;;;;;;91.05;28.75;;;;;;;;;;5075113;28;20640;-76
2022/12/14 12:47:15;;;;;;;95.95;30.20;;;;;;;;;;5074941;28;20210;-76
2022/12/14 12:49:42;;;;;;;95.28;28.88;;;;;;;;;;5074087;28;20218;-76
2022/12/14 12:52:15;;;;;;;95.93;27.65;;;;;;;;;;5074708;28;20206;-75
2022/12/14 12:54:47;;;;;;;94.95;28.40;;;;;;;;;;5074650;28;20201;-76
2022/12/14 12:57:17;;;;;;;101.13;29.27;;;;;;;;;;5074987;28;20297;-77
2022/12/14 12:59:46;;;;;;;99.10;31.08;;;;;;;;;;5073874;28;20287;-77
2022/12/14 13:02:20;;;;;;;96.53;28.60;;;;;;;;;;5074643;28;20212;-75
2022/12/14 13:04:48;;;;;;;98.10;29.30;;;;;;;;;;5074813;28;20208;-76
2022/12/14 13:07:20;;;;;;;93.57;28.98;;;;;;;;;;5074467;28;20674;-76
2022/12/14 13:09:50;;;;;;;99.28;30.17;;;;;;;;;;5073772;28;20591;-77
2022/12/14 13:12:23;;;;;;;92.22;27.75;;;;;;;;;;5074833;28;20305;-75
2022/12/14 13:14:51;;;;;;;93.00;26.98;;;;;;;;;;5074301;28;20205;-75
2022/12/14 13:17:25;;;;;;;94.13;28.02;;;;;;;;;;5074223;28;20690;-75
2022/12/14 13:19:53;;;;;;;92.13;28.20;;;;;;;;;;5072569;28;20233;-76
2022/12/14 13:22:23;;;;;;;100.95;29.05;;;;;;;;;;5074271;28;20211;-76
2022/12/14 13:24:52;;;;;;;90.80;28.52;;;;;;;;;;5074098;28;20210;-76
2022/12/14 13:27:33;;;;;;;96.00;29.40;;;;;;;;;;5074072;28;20205;-76
2022/12/14 13:30:06;;;;;;;94.65;27.55;;;;;;;;;;5073419;28;20684;-76
2022/12/14 13:32:49;;;;;;;94.65;27.50;;;;;;;;;;5074068;28;20209;-76
2022/12/14 13:35:23;;;;;;;101.28;30.10;;;;;;;;;;5074030;28;20305;-76
2022/12/14 13:37:57;;;;;;;97.90;30.83;;;;;;;;;;5074189;28;20205;-75
2022/12/14 13:40:30;;;;;;;101.45;30.15;;;;;;;;;;5073430;28;20735;-76
2022/12/14 13:43:04;;;;;;;102.55;30.30;;;;;;;;;;5074538;28;20556;-76
2022/12/14 13:45:34;;;;;;;99.82;30.08;;;;;;;;;;5074907;28;20233;-76
2022/12/14 13:48:02;;;;;;;94.85;28.55;;;;;;;;;;5075128;28;20209;-76
2022/12/14 13:50:30;;;;;;;97.03;29.10;;;;;;;;;;5073785;28;20232;-76
2022/12/14 13:53:00;;;;;;;99.28;28.65;;;;;;;;;;5074652;28;20201;-77
2022/12/14 13:55:31;;;;;;;97.10;28.40;;;;;;;;;;5074153;28;20205;-76
2022/12/14 13:58:09;;;;;;;97.78;29.25;;;;;;;;;;5073392;28;20236;-76
2022/12/14 14:00:50;;;;;;;96.30;26.10;;;;;;;;;;5072796;28;20236;-76
2022/12/14 14:03:32;;;;;;;98.63;29.35;;;;;;;;;;5073667;28;20593;-76
2022/12/14 14:06:01;;;;;;;94.28;28.35;;;;;;;;;;5073412;28;20573;-76
2022/12/14 14:08:30;;;;;;;101.05;30.45;;;;;;;;;;5073141;28;20217;-74
2022/12/14 14:10:57;;;;;;;99.80;28.25;;;;;;;;;;5073052;28;20609;-76
2022/12/14 14:13:43;;;;;;;100.95;30.08;;;;;;;;;;5073177;28;20205;-76
2022/12/14 14:16:15;;;;;;;102.47;29.88;;;;;;;;;;5073231;28;20673;-76
2022/12/14 14:18:48;;;;;;;99.70;32.60;;;;;;;;;;5072691;28;20295;-75
2022/12/14 14:21:30;;;;;;;100.32;31.08;;;;;;;;;;5073155;28;20228;-76
2022/12/14 14:23:57;;;;;;;110.85;31.20;;;;;;;;;;5073496;28;20193;-76
2022/12/14 14:26:26;;;;;;;106.40;32.78;;;;;;;;;;5073100;28;20209;-76
2022/12/14 14:29:06;;;;;;;95.85;27.88;;;;;;;;;;5070171;28;20196;-76
2022/12/14 14:31:46;;;;;;;99.53;31.38;;;;;;;;;;5057498;28;20226;-76
2022/12/14 14:34:17;;;;;;;99.03;30.23;;;;;;;;;;5054558;28;20237;-77
2022/12/14 14:36:45;;;;;;;99.20;31.92;;;;;;;;;;5054708;28;20213;-76
2022/12/14 14:39:28;;;;;;;100.22;30.92;;;;;;;;;;5053507;28;20249;-77
2022/12/14 14:41:55;;;;;;;100.07;29.30;;;;;;;;;;5053367;28;20217;-76
2022/12/14 14:44:25;;;;;;;103.88;30.42;;;;;;;;;;5054830;28;20209;-78